sensor_id;sensor_type;location;lat;lon;timestamp;pressure;altitude;pressure_sealevel;temperature;humidity
20043;BME280;10182;52.896;6.496;2023-02-11T00:00:38;103066.56;;;5.58;100.00
20043;BME280;10182;52.896;6.496;2023-02-11T00:05:41;103098.09;;;5.57;100.00
20043;BME280;10182;52.896;6.496;2023-02-11T00:10:43;103099.03;;;5.61;100.00
20043;BME280;10182;52.896;6.496;2023-02-11T00:15:45;103091.13;;;5.61;100.00
20043;BME280;10182;52.896;6.496;2023-02-11T00:20:48;103072.72;;;5.61;100.00
20043;BME280;10182;52.896;6.496;2023-02-11T00:25:50;103040.28;;;5.60;100.00
20043;BME280;10182;52.896;6.496;2023-02-11T00:30:55;103045.47;;;5.52;100.00
20043;BME280;10182;52.896;6.496;2023-02-11T00:36:02;103047.16;;;5.46;100.00
20043;BME280;10182;52.896;6.496;2023-02-11T00:41:04;103073.34;;;5.39;100.00
20043;BME280;10182;52.896;6.496;2023-02-11T00:46:07;103075.09;;;5.37;100.00
20043;BME280;10182;52.896;6.496;2023-02-11T00:51:11;103080.28;;;5.34;100.00
20043;BME280;10182;52.896;6.496;2023-02-11T00:56:13;103079.38;;;5.29;100.00
20043;BME280;10182;52.896;6.496;2023-02-11T01:01:15;103066.94;;;5.17;100.00
20043;BME280;10182;52.896;6.496;2023-02-11T01:06:18;103064.19;;;5.09;100.00
20043;BME280;10182;52.896;6.496;2023-02-11T01:11:20;103059.72;;;5.01;100.00
20043;BME280;10182;52.896;6.496;2023-02-11T01:16:22;103050.81;;;4.89;100.00
20043;BME280;10182;52.896;6.496;2023-02-11T01:21:25;103075.22;;;4.82;100.00
20043;BME280;10182;52.896;6.496;2023-02-11T01:26:27;103084.75;;;4.75;100.00
20043;BME280;10182;52.896;6.496;2023-02-11T01:31:29;103090.00;;;4.75;100.00
20043;BME280;10182;52.896;6.496;2023-02-11T01:36:32;103081.28;;;4.80;100.00
20043;BME280;10182;52.896;6.496;2023-02-11T01:41:35;103062.09;;;4.84;100.00
20043;BME280;10182;52.896;6.496;2023-02-11T01:46:37;103061.22;;;4.83;100.00
20043;BME280;10182;52.896;6.496;2023-02-11T01:51:43;103049.88;;;4.86;100.00
20043;BME280;10182;52.896;6.496;2023-02-11T01:56:49;103064.78;;;4.87;100.00
20043;BME280;10182;52.896;6.496;2023-02-11T02:02:11;103061.34;;;4.89;100.00
20043;BME280;10182;52.896;6.496;2023-02-11T02:07:21;103058.72;;;4.91;100.00
20043;BME280;10182;52.896;6.496;2023-02-11T02:12:25;103051.72;;;4.91;100.00
20043;BME280;10182;52.896;6.496;2023-02-11T02:17:33;103028.94;;;4.90;100.00
20043;BME280;10182;52.896;6.496;2023-02-11T02:28:24;103032.44;;;4.91;100.00
20043;BME280;10182;52.896;6.496;2023-02-11T02:33:45;103022.84;;;4.93;100.00
20043;BME280;10182;52.896;6.496;2023-02-11T02:38:52;103004.50;;;4.96;100.00
20043;BME280;10182;52.896;6.496;2023-02-11T02:43:58;103015.94;;;5.01;100.00
20043;BME280;10182;52.896;6.496;2023-02-11T02:49:02;103000.16;;;5.01;100.00
20043;BME280;10182;52.896;6.496;2023-02-11T02:59:39;103011.81;;;5.22;100.00
20043;BME280;10182;52.896;6.496;2023-02-11T03:04:47;103003.09;;;5.26;100.00
20043;BME280;10182;52.896;6.496;2023-02-11T03:09:56;103000.59;;;5.38;100.00
20043;BME280;10182;52.896;6.496;2023-02-11T03:15:00;102987.44;;;5.35;100.00
20043;BME280;10182;52.896;6.496;2023-02-11T03:20:06;103001.44;;;5.34;100.00
20043;BME280;10182;52.896;6.496;2023-02-11T03:25:10;102982.19;;;5.37;100.00
20043;BME280;10182;52.896;6.496;2023-02-11T03:30:19;102989.22;;;5.39;100.00
20043;BME280;10182;52.896;6.496;2023-02-11T03:35:27;102982.31;;;5.48;100.00
20043;BME280;10182;52.896;6.496;2023-02-11T03:40:31;103001.69;;;5.59;100.00
20043;BME280;10182;52.896;6.496;2023-02-11T03:45:36;102990.44;;;5.72;100.00
20043;BME280;10182;52.896;6.496;2023-02-11T03:50:40;102984.41;;;5.81;100.00
20043;BME280;10182;52.896;6.496;2023-02-11T03:55:43;102977.38;;;5.85;100.00
20043;BME280;10182;52.896;6.496;2023-02-11T04:00:45;102978.22;;;5.78;100.00
20043;BME280;10182;52.896;6.496;2023-02-11T04:05:48;102981.69;;;5.75;100.00
20043;BME280;10182;52.896;6.496;2023-02-11T04:10:50;102986.09;;;5.74;100.00
20043;BME280;10182;52.896;6.496;2023-02-11T04:15:52;102986.94;;;5.73;100.00
20043;BME280;10182;52.896;6.496;2023-02-11T04:20:55;102992.22;;;5.75;100.00
20043;BME280;10182;52.896;6.496;2023-02-11T04:25:57;103000.09;;;5.73;100.00
20043;BME280;10182;52.896;6.496;2023-02-11T04:30:58;102995.66;;;5.69;100.00
20043;BME280;10182;52.896;6.496;2023-02-11T04:36:01;102993.03;;;5.69;100.00
20043;BME280;10182;52.896;6.496;2023-02-11T04:41:03;103005.25;;;5.64;100.00
20043;BME280;10182;52.896;6.496;2023-02-11T04:46:05;103001.69;;;5.59;100.00
20043;BME280;10182;52.896;6.496;2023-02-11T04:51:08;103015.66;;;5.55;100.00
20043;BME280;10182;52.896;6.496;2023-02-11T04:56:10;103012.13;;;5.48;100.00
20043;BME280;10182;52.896;6.496;2023-02-11T05:01:14;103015.59;;;5.46;100.00
20043;BME280;10182;52.896;6.496;2023-02-11T05:06:17;103005.94;;;5.43;100.00
20043;BME280;10182;52.896;6.496;2023-02-11T05:11:20;103017.19;;;5.34;100.00
20043;BME280;10182;52.896;6.496;2023-02-11T05:16:22;103019.78;;;5.30;100.00
20043;BME280;10182;52.896;6.496;2023-02-11T05:21:25;103013.69;;;5.31;100.00
20043;BME280;10182;52.896;6.496;2023-02-11T05:26:27;103016.22;;;5.24;100.00
20043;BME280;10182;52.896;6.496;2023-02-11T05:31:29;103011.88;;;5.25;100.00
20043;BME280;10182;52.896;6.496;2023-02-11T05:36:33;103013.56;;;5.20;100.00
20043;BME280;10182;52.896;6.496;2023-02-11T05:41:35;103015.25;;;5.18;100.00
20043;BME280;10182;52.896;6.496;2023-02-11T05:46:37;103007.38;;;5.16;100.00
20043;BME280;10182;52.896;6.496;2023-02-11T05:51:40;103009.94;;;5.12;100.00
20043;BME280;10182;52.896;6.496;2023-02-11T05:56:42;103024.78;;;5.09;100.00
20043;BME280;10182;52.896;6.496;2023-02-11T06:01:44;103016.03;;;5.09;100.00
20043;BME280;10182;52.896;6.496;2023-02-11T06:06:47;103016.06;;;5.11;100.00
20043;BME280;10182;52.896;6.496;2023-02-11T06:11:48;103004.69;;;5.12;100.00
20043;BME280;10182;52.896;6.496;2023-02-11T06:16:50;103016.91;;;5.09;100.00
20043;BME280;10182;52.896;6.496;2023-02-11T06:21:54;103030.97;;;5.13;100.00
20043;BME280;10182;52.896;6.496;2023-02-11T06:26:56;103024.88;;;5.16;100.00
20043;BME280;10182;52.896;6.496;2023-02-11T06:31:58;103023.13;;;5.16;100.00
20043;BME280;10182;52.896;6.496;2023-02-11T06:37:01;103014.41;;;5.20;100.00
20043;BME280;10182;52.896;6.496;2023-02-11T06:42:03;103005.69;;;5.21;100.00
20043;BME280;10182;52.896;6.496;2023-02-11T06:47:05;103018.00;;;5.25;100.00
20043;BME280;10182;52.896;6.496;2023-02-11T06:52:08;103020.66;;;5.29;100.00
20043;BME280;10182;52.896;6.496;2023-02-11T06:57:09;103022.41;;;5.30;100.00
20043;BME280;10182;52.896;6.496;2023-02-11T07:02:11;103018.06;;;5.32;100.00
20043;BME280;10182;52.896;6.496;2023-02-11T07:07:14;103021.56;;;5.31;100.00
20043;BME280;10182;52.896;6.496;2023-02-11T07:12:16;103021.59;;;5.34;100.00
20043;BME280;10182;52.896;6.496;2023-02-11T07:17:17;103021.69;;;5.40;100.00
20043;BME280;10182;52.896;6.496;2023-02-11T07:22:20;103029.56;;;5.41;100.00
20043;BME280;10182;52.896;6.496;2023-02-11T07:27:22;103026.13;;;5.47;100.00
20043;BME280;10182;52.896;6.496;2023-02-11T07:32:24;103038.44;;;5.51;100.00
20043;BME280;10182;52.896;6.496;2023-02-11T07:37:27;103038.47;;;5.56;100.00
20043;BME280;10182;52.896;6.496;2023-02-11T07:42:28;103044.66;;;5.58;100.00
20043;BME280;10182;52.896;6.496;2023-02-11T07:47:30;103045.59;;;5.63;100.00
20043;BME280;10182;52.896;6.496;2023-02-11T07:52:33;103045.63;;;5.69;100.00
20043;BME280;10182;52.896;6.496;2023-02-11T07:57:35;103049.13;;;5.68;100.00
20043;BME280;10182;52.896;6.496;2023-02-11T08:02:37;103035.13;;;5.71;100.00
20043;BME280;10182;52.896;6.496;2023-02-11T08:07:40;103036.06;;;5.78;100.00
20043;BME280;10182;52.896;6.496;2023-02-11T08:12:41;103041.34;;;5.81;100.00
20043;BME280;10182;52.896;6.496;2023-02-11T08:17:43;103051.03;;;5.85;100.00
20043;BME280;10182;52.896;6.496;2023-02-11T08:22:46;103071.25;;;5.89;100.00
20043;BME280;10182;52.896;6.496;2023-02-11T08:27:48;103073.88;;;5.90;100.00
20043;BME280;10182;52.896;6.496;2023-02-11T08:32:50;103073.03;;;5.91;100.00
20043;BME280;10182;52.896;6.496;2023-02-11T08:37:53;103082.72;;;5.96;100.00
20043;BME280;10182;52.896;6.496;2023-02-11T08:42:54;103090.63;;;5.97;100.00
20043;BME280;10182;52.896;6.496;2023-02-11T08:47:56;103092.44;;;5.98;100.00
20043;BME280;10182;52.896;6.496;2023-02-11T08:52:59;103092.44;;;6.00;100.00
20043;BME280;10182;52.896;6.496;2023-02-11T08:58:01;103102.13;;;6.02;100.00
20043;BME280;10182;52.896;6.496;2023-02-11T09:03:03;103109.25;;;6.11;100.00
20043;BME280;10182;52.896;6.496;2023-02-11T09:08:06;103106.66;;;6.20;100.00
20043;BME280;10182;52.896;6.496;2023-02-11T09:13:08;103109.34;;;6.23;100.00
20043;BME280;10182;52.896;6.496;2023-02-11T09:18:10;103109.41;;;6.33;100.00
20043;BME280;10182;52.896;6.496;2023-02-11T09:23:13;103131.50;;;6.49;100.00
20043;BME280;10182;52.896;6.496;2023-02-11T09:28:14;103143.88;;;6.59;100.00
20043;BME280;10182;52.896;6.496;2023-02-11T09:33:16;103157.16;;;6.71;100.00
20043;BME280;10182;52.896;6.496;2023-02-11T09:38:19;103155.47;;;6.80;100.00
20043;BME280;10182;52.896;6.496;2023-02-11T09:43:22;103163.41;;;6.89;100.00
20043;BME280;10182;52.896;6.496;2023-02-11T09:48:25;103166.16;;;7.01;100.00
20043;BME280;10182;52.896;6.496;2023-02-11T09:53:31;103172.31;;;7.08;100.00
20043;BME280;10182;52.896;6.496;2023-02-11T09:58:37;103173.28;;;7.18;100.00
20043;BME280;10182;52.896;6.496;2023-02-11T10:04:00;103173.31;;;7.25;100.00
20043;BME280;10182;52.896;6.496;2023-02-11T10:09:14;103183.94;;;7.38;100.00
20043;BME280;10182;52.896;6.496;2023-02-11T10:14:31;103183.13;;;7.45;100.00
20043;BME280;10182;52.896;6.496;2023-02-11T10:19:52;103199.81;;;7.52;100.00
20043;BME280;10182;52.896;6.496;2023-02-11T10:24:59;103207.84;;;7.66;100.00
20043;BME280;10182;52.896;6.496;2023-02-11T10:30:04;103213.13;;;7.73;100.00
20043;BME280;10182;52.896;6.496;2023-02-11T10:35:12;103200.84;;;7.74;100.00
20043;BME280;10182;52.896;6.496;2023-02-11T10:40:18;103207.91;;;7.83;100.00
20043;BME280;10182;52.896;6.496;2023-02-11T10:45:25;103214.06;;;7.86;100.00
20043;BME280;10182;52.896;6.496;2023-02-11T10:50:30;103220.28;;;7.97;100.00
20043;BME280;10182;52.896;6.496;2023-02-11T10:55:35;103211.47;;;8.02;100.00
20043;BME280;10182;52.896;6.496;2023-02-11T11:00:38;103208.84;;;8.06;100.00
20043;BME280;10182;52.896;6.496;2023-02-11T11:05:46;103207.09;;;8.13;100.00
20043;BME280;10182;52.896;6.496;2023-02-11T11:11:01;103207.09;;;8.13;100.00
20043;BME280;10182;52.896;6.496;2023-02-11T11:16:19;103208.88;;;8.14;100.00
20043;BME280;10182;52.896;6.496;2023-02-11T11:21:23;103225.63;;;8.16;100.00
20043;BME280;10182;52.896;6.496;2023-02-11T11:26:37;103223.84;;;8.21;100.00
20043;BME280;10182;52.896;6.496;2023-02-11T11:31:47;103224.75;;;8.20;100.00
20043;BME280;10182;52.896;6.496;2023-02-11T11:36:50;103228.28;;;8.30;100.00
20043;BME280;10182;52.896;6.496;2023-02-11T11:41:57;103222.13;;;8.37;100.00
20043;BME280;10182;52.896;6.496;2023-02-11T11:47:22;103230.94;;;8.38;100.00
20043;BME280;10182;52.896;6.496;2023-02-11T11:52:36;103230.06;;;8.40;100.00
20043;BME280;10182;52.896;6.496;2023-02-11T11:57:41;103230.06;;;8.42;100.00
20043;BME280;10182;52.896;6.496;2023-02-11T12:03:09;103238.00;;;8.43;100.00
20043;BME280;10182;52.896;6.496;2023-02-11T12:08:22;103235.41;;;8.54;100.00
20043;BME280;10182;52.896;6.496;2023-02-11T12:13:53;103232.75;;;8.51;100.00
20043;BME280;10182;52.896;6.496;2023-02-11T12:19:20;103219.53;;;8.53;100.00
20043;BME280;10182;52.896;6.496;2023-02-11T12:29:59;103223.97;;;8.63;100.00
20043;BME280;10182;52.896;6.496;2023-02-11T12:35:22;103225.75;;;8.64;100.00
20043;BME280;10182;52.896;6.496;2023-02-11T12:40:32;103229.28;;;8.74;100.00
20043;BME280;10182;52.896;6.496;2023-02-11T12:45:52;103224.88;;;8.79;100.00
20043;BME280;10182;52.896;6.496;2023-02-11T12:51:04;103224.84;;;8.77;100.00
20043;BME280;10182;52.896;6.496;2023-02-11T12:56:16;103229.28;;;8.75;100.00
20043;BME280;10182;52.896;6.496;2023-02-11T13:01:23;103227.50;;;8.63;100.00
20043;BME280;10182;52.896;6.496;2023-02-11T13:06:32;103231.91;;;8.69;100.00
20043;BME280;10182;52.896;6.496;2023-02-11T13:11:38;103223.97;;;8.66;100.00
20043;BME280;10182;52.896;6.496;2023-02-11T13:16:43;103228.41;;;8.75;100.00
20043;BME280;10182;52.896;6.496;2023-02-11T13:21:53;103228.38;;;8.81;100.00
20043;BME280;10182;52.896;6.496;2023-02-11T13:27:03;103224.88;;;8.84;100.00
20043;BME280;10182;52.896;6.496;2023-02-11T13:32:12;103219.56;;;8.88;100.00
20043;BME280;10182;52.896;6.496;2023-02-11T13:37:20;103220.47;;;8.81;100.00
20043;BME280;10182;52.896;6.496;2023-02-11T13:42:23;103223.13;;;8.89;100.00
20043;BME280;10182;52.896;6.496;2023-02-11T13:47:29;103223.09;;;8.96;100.00
20043;BME280;10182;52.896;6.496;2023-02-11T13:52:33;103229.28;;;9.08;100.00
20043;BME280;10182;52.896;6.496;2023-02-11T13:57:38;103230.16;;;9.16;100.00
20043;BME280;10182;52.896;6.496;2023-02-11T14:02:41;103237.19;;;9.11;100.00
20043;BME280;10182;52.896;6.496;2023-02-11T14:08:15;103231.03;;;9.04;100.00
20043;BME280;10182;52.896;6.496;2023-02-11T14:14:15;103230.13;;;9.13;100.00
20043;BME280;10182;52.896;6.496;2023-02-11T14:19:31;103231.91;;;9.09;100.00
20043;BME280;10182;52.896;6.496;2023-02-11T14:24:52;103238.06;;;9.19;100.00
20043;BME280;10182;52.896;6.496;2023-02-11T14:30:17;103245.09;;;9.25;100.00
20043;BME280;10182;52.896;6.496;2023-02-11T14:35:26;103247.78;;;9.19;100.00
20043;BME280;10182;52.896;6.496;2023-02-11T14:40:33;103246.00;;;9.18;100.00
20043;BME280;10182;52.896;6.496;2023-02-11T14:45:39;103249.53;;;9.13;100.00
20043;BME280;10182;52.896;6.496;2023-02-11T14:50:47;103248.66;;;9.08;100.00
20043;BME280;10182;52.896;6.496;2023-02-11T14:55:50;103243.34;;;8.87;100.00
20043;BME280;10182;52.896;6.496;2023-02-11T15:00:54;103246.03;;;8.79;100.00
20043;BME280;10182;52.896;6.496;2023-02-11T15:05:59;103263.59;;;8.63;100.00
20043;BME280;10182;52.896;6.496;2023-02-11T15:11:03;103266.25;;;8.60;100.00
20043;BME280;10182;52.896;6.496;2023-02-11T15:16:08;103266.25;;;8.61;100.00
20043;BME280;10182;52.896;6.496;2023-02-11T15:21:12;103281.22;;;8.58;100.00
20043;BME280;10182;52.896;6.496;2023-02-11T15:26:20;103284.72;;;8.49;100.00
20043;BME280;10182;52.896;6.496;2023-02-11T15:31:23;103281.19;;;8.50;100.00
20043;BME280;10182;52.896;6.496;2023-02-11T15:36:26;103278.53;;;8.45;100.00
20043;BME280;10182;52.896;6.496;2023-02-11T15:41:35;103296.09;;;8.33;100.00
20043;BME280;10182;52.896;6.496;2023-02-11T15:46:38;103297.84;;;8.35;100.00
20043;BME280;10182;52.896;6.496;2023-02-11T15:51:44;103292.53;;;8.30;100.00
20043;BME280;10182;52.896;6.496;2023-02-11T15:56:48;103294.28;;;8.24;100.00
20043;BME280;10182;52.896;6.496;2023-02-11T16:01:51;103304.84;;;8.18;100.00
20043;BME280;10182;52.896;6.496;2023-02-11T16:06:56;103301.25;;;8.06;100.00
20043;BME280;10182;52.896;6.496;2023-02-11T16:11:59;103310.91;;;8.03;100.00
20043;BME280;10182;52.896;6.496;2023-02-11T16:17:04;103304.78;;;8.04;100.00
20043;BME280;10182;52.896;6.496;2023-02-11T16:22:10;103299.44;;;7.96;100.00
20043;BME280;10182;52.896;6.496;2023-02-11T16:27:20;103307.38;;;7.96;100.00
20043;BME280;10182;52.896;6.496;2023-02-11T16:32:24;103322.28;;;7.92;100.00
20043;BME280;10182;52.896;6.496;2023-02-11T16:37:27;103320.50;;;7.87;100.00
20043;BME280;10182;52.896;6.496;2023-02-11T16:42:29;103330.19;;;7.85;100.00
20043;BME280;10182;52.896;6.496;2023-02-11T16:47:33;103341.56;;;7.77;100.00
20043;BME280;10182;52.896;6.496;2023-02-11T16:52:36;103345.97;;;7.77;100.00
20043;BME280;10182;52.896;6.496;2023-02-11T16:57:38;103360.88;;;7.73;100.00
20043;BME280;10182;52.896;6.496;2023-02-11T17:02:40;103360.88;;;7.72;100.00
20043;BME280;10182;52.896;6.496;2023-02-11T17:07:43;103368.75;;;7.67;100.00
20043;BME280;10182;52.896;6.496;2023-02-11T17:12:45;103371.41;;;7.66;100.00
20043;BME280;10182;52.896;6.496;2023-02-11T17:17:47;103376.66;;;7.64;100.00
20043;BME280;10182;52.896;6.496;2023-02-11T17:22:50;103382.78;;;7.61;100.00
20043;BME280;10182;52.896;6.496;2023-02-11T17:27:52;103388.88;;;7.56;100.00
20043;BME280;10182;52.896;6.496;2023-02-11T17:32:54;103392.38;;;7.52;100.00
20043;BME280;10182;52.896;6.496;2023-02-11T17:37:57;103387.06;;;7.45;100.00
20043;BME280;10182;52.896;6.496;2023-02-11T17:43:00;103394.09;;;7.45;100.00
20043;BME280;10182;52.896;6.496;2023-02-11T17:48:02;103400.22;;;7.44;100.00
20043;BME280;10182;52.896;6.496;2023-02-11T17:53:05;103398.47;;;7.44;100.00
20043;BME280;10182;52.896;6.496;2023-02-11T17:58:07;103402.81;;;7.39;100.00
20043;BME280;10182;52.896;6.496;2023-02-11T18:03:09;103405.44;;;7.36;100.00
20043;BME280;10182;52.896;6.496;2023-02-11T18:08:12;103408.88;;;7.29;100.00
20043;BME280;10182;52.896;6.496;2023-02-11T18:13:13;103408.81;;;7.21;100.00
20043;BME280;10182;52.896;6.496;2023-02-11T18:18:15;103408.75;;;7.17;100.00
20043;BME280;10182;52.896;6.496;2023-02-11T18:23:18;103419.22;;;7.07;100.00
20043;BME280;10182;52.896;6.496;2023-02-11T18:28:20;103421.81;;;7.03;100.00
20043;BME280;10182;52.896;6.496;2023-02-11T18:33:21;103437.56;;;6.98;100.00
20043;BME280;10182;52.896;6.496;2023-02-11T18:38:24;103440.16;;;6.97;100.00
20043;BME280;10182;52.896;6.496;2023-02-11T18:43:26;103455.09;;;6.94;100.00
20043;BME280;10182;52.896;6.496;2023-02-11T18:48:31;103448.91;;;6.91;100.00
20043;BME280;10182;52.896;6.496;2023-02-11T18:53:34;103443.59;;;6.88;100.00
20043;BME280;10182;52.896;6.496;2023-02-11T18:58:35;103456.75;;;6.86;100.00
20043;BME280;10182;52.896;6.496;2023-02-11T19:03:38;103461.09;;;6.83;100.00
20043;BME280;10182;52.896;6.496;2023-02-11T19:08:41;103459.31;;;6.80;100.00
20043;BME280;10182;52.896;6.496;2023-02-11T19:13:42;103474.25;;;6.80;100.00
20043;BME280;10182;52.896;6.496;2023-02-11T19:18:46;103482.97;;;6.75;100.00
20043;BME280;10182;52.896;6.496;2023-02-11T19:23:49;103487.31;;;6.73;100.00
20043;BME280;10182;52.896;6.496;2023-02-11T19:28:52;103488.94;;;6.64;100.00
20043;BME280;10182;52.896;6.496;2023-02-11T19:33:53;103488.75;;;6.48;100.00
20043;BME280;10182;52.896;6.496;2023-02-11T19:38:59;103488.59;;;6.37;100.00
20043;BME280;10182;52.896;6.496;2023-02-11T19:44:01;103496.31;;;6.26;100.00
20043;BME280;10182;52.896;6.496;2023-02-11T19:49:04;103489.16;;;6.18;100.00
20043;BME280;10182;52.896;6.496;2023-02-11T19:54:07;103503.06;;;6.09;100.00
20043;BME280;10182;52.896;6.496;2023-02-11T19:59:09;103515.22;;;6.01;100.00
20043;BME280;10182;52.896;6.496;2023-02-11T20:04:11;103509.72;;;5.90;100.00
20043;BME280;10182;52.896;6.496;2023-02-11T20:09:14;103520.03;;;5.76;100.00
20043;BME280;10182;52.896;6.496;2023-02-11T20:14:16;103519.03;;;5.71;100.00
20043;BME280;10182;52.896;6.496;2023-02-11T20:19:20;103524.22;;;5.65;100.00
20043;BME280;10182;52.896;6.496;2023-02-11T20:24:24;103532.84;;;5.59;100.00
20043;BME280;10182;52.896;6.496;2023-02-11T20:29:25;103540.56;;;5.48;100.00
20043;BME280;10182;52.896;6.496;2023-02-11T20:34:30;103534.19;;;5.37;100.00
20043;BME280;10182;52.896;6.496;2023-02-11T20:39:33;103542.84;;;5.31;100.00
20043;BME280;10182;52.896;6.496;2023-02-11T20:44:36;103549.69;;;5.23;100.00
20043;BME280;10182;52.896;6.496;2023-02-11T20:49:38;103551.31;;;5.18;100.00
20043;BME280;10182;52.896;6.496;2023-02-11T20:54:41;103560.88;;;5.13;100.00
20043;BME280;10182;52.896;6.496;2023-02-11T20:59:43;103564.31;;;5.08;100.00
20043;BME280;10182;52.896;6.496;2023-02-11T21:04:45;103572.91;;;5.03;100.00
20043;BME280;10182;52.896;6.496;2023-02-11T21:09:51;103578.91;;;4.97;100.00
20043;BME280;10182;52.896;6.496;2023-02-11T21:14:52;103579.84;;;4.99;100.00
20043;BME280;10182;52.896;6.496;2023-02-11T21:19:56;103586.09;;;5.04;100.00
20043;BME280;10182;52.896;6.496;2023-02-11T21:24:59;103593.09;;;5.04;100.00
20043;BME280;10182;52.896;6.496;2023-02-11T21:30:01;103607.22;;;5.09;100.00
20043;BME280;10182;52.896;6.496;2023-02-11T21:35:03;103598.53;;;5.13;100.00
20043;BME280;10182;52.896;6.496;2023-02-11T21:40:07;103601.25;;;5.18;100.00
20043;BME280;10182;52.896;6.496;2023-02-11T21:45:09;103600.38;;;5.17;100.00
20043;BME280;10182;52.896;6.496;2023-02-11T21:50:11;103604.00;;;5.22;100.00
20043;BME280;10182;52.896;6.496;2023-02-11T21:55:14;103610.25;;;5.28;100.00
20043;BME280;10182;52.896;6.496;2023-02-11T22:00:17;103625.25;;;5.32;100.00
20043;BME280;10182;52.896;6.496;2023-02-11T22:05:18;103628.75;;;5.32;100.00
20043;BME280;10182;52.896;6.496;2023-02-11T22:10:21;103627.00;;;5.33;100.00
20043;BME280;10182;52.896;6.496;2023-02-11T22:15:23;103632.28;;;5.34;100.00
20043;BME280;10182;52.896;6.496;2023-02-11T22:20:25;103640.28;;;5.39;100.00
20043;BME280;10182;52.896;6.496;2023-02-11T22:25:28;103636.63;;;5.32;100.00
20043;BME280;10182;52.896;6.496;2023-02-11T22:30:30;103638.38;;;5.32;100.00
20043;BME280;10182;52.896;6.496;2023-02-11T22:35:32;103645.31;;;5.30;100.00
20043;BME280;10182;52.896;6.496;2023-02-11T22:40:40;103642.66;;;5.28;100.00
20043;BME280;10182;52.896;6.496;2023-02-11T22:45:41;103650.44;;;5.23;100.00
20043;BME280;10182;52.896;6.496;2023-02-11T22:50:43;103650.28;;;5.16;100.00
20043;BME280;10182;52.896;6.496;2023-02-11T22:55:46;103655.38;;;5.09;100.00
20043;BME280;10182;52.896;6.496;2023-02-11T23:00:48;103663.22;;;5.06;100.00
20043;BME280;10182;52.896;6.496;2023-02-11T23:05:50;103661.34;;;5.01;100.00
20043;BME280;10182;52.896;6.496;2023-02-11T23:10:53;103660.41;;;4.99;100.00
20043;BME280;10182;52.896;6.496;2023-02-11T23:15:55;103656.88;;;4.97;100.00
20043;BME280;10182;52.896;6.496;2023-02-11T23:21:01;103655.84;;;4.91;100.00
20043;BME280;10182;52.896;6.496;2023-02-11T23:26:08;103662.00;;;4.92;100.00
20043;BME280;10182;52.896;6.496;2023-02-11T23:31:15;103666.34;;;4.90;100.00
20043;BME280;10182;52.896;6.496;2023-02-11T23:36:19;103665.41;;;4.88;100.00
20043;BME280;10182;52.896;6.496;2023-02-11T23:41:25;103670.59;;;4.85;100.00
20043;BME280;10182;52.896;6.496;2023-02-11T23:46:26;103688.91;;;4.82;100.00
20043;BME280;10182;52.896;6.496;2023-02-11T23:51:28;103694.19;;;4.83;100.00
20043;BME280;10182;52.896;6.496;2023-02-11T23:56:32;103690.72;;;4.84;100.00
